Time;durP1;ratioP1;P1;durP2;ratioP2;P2;SDS_P1;SDS_P2;PMS_P1;PMS_P2;Temp;Humidity;BMP_temperature;BMP_pressure;BME280_temperature;BME280_humidity;BME280_pressure;Samples;Min_cycle;Max_cycle;Signal;HPM_P1;HPM_P2
2022/03/24 00:01:15;;;;;;;53.10;23.50;;;;;;;0.60;53.13;101762.39;107514;1246;72376;-63
2022/03/24 00:03:46;;;;;;;50.00;28.00;;;;;;;0.55;54.79;101757.32;107649;1244;59744;-67
2022/03/24 00:06:15;;;;;;;45.30;23.20;;;;;;;0.54;55.27;101754.77;107784;1244;59972;-66
2022/03/24 00:08:45;;;;;;;52.10;25.50;;;;;;;0.54;54.78;101753.23;107698;1244;72047;-66
2022/03/24 00:11:14;;;;;;;47.00;25.90;;;;;;;0.52;54.61;101750.17;107764;1243;72599;-63
2022/03/24 00:13:44;;;;;;;48.80;25.40;;;;;;;0.50;55.61;101748.48;107554;1244;70374;-65
2022/03/24 00:16:15;;;;;;;49.70;25.50;;;;;;;0.47;56.60;101745.11;107471;1244;74331;-64
2022/03/24 00:18:47;;;;;;;46.90;25.30;;;;;;;0.43;56.90;101743.10;107561;1244;59790;-65
2022/03/24 00:21:16;;;;;;;53.60;26.20;;;;;;;0.39;56.97;101744.88;107608;1244;59970;-63
2022/03/24 00:23:46;;;;;;;46.30;25.00;;;;;;;0.37;56.82;101743.36;107487;1244;74560;-67
2022/03/24 00:26:15;;;;;;;58.10;26.30;;;;;;;0.36;55.86;101741.48;107585;1244;72561;-64
2022/03/24 00:28:44;;;;;;;51.80;27.50;;;;;;;0.33;54.82;101736.20;107477;1246;69062;-61
2022/03/24 00:31:14;;;;;;;51.60;26.80;;;;;;;0.30;56.46;101736.94;107486;1244;74873;-64
2022/03/24 00:33:43;;;;;;;51.70;27.60;;;;;;;0.27;56.77;101734.58;107469;1246;59418;-64
2022/03/24 00:36:14;;;;;;;55.10;27.40;;;;;;;0.24;55.39;101730.34;107563;1244;59529;-64
2022/03/24 00:38:43;;;;;;;50.20;26.10;;;;;;;0.21;57.23;101728.83;107568;1244;73463;-67
2022/03/24 00:41:12;;;;;;;58.00;26.20;;;;;;;0.17;57.12;101725.45;107463;1244;70484;-66
2022/03/24 00:43:42;;;;;;;52.80;25.70;;;;;;;0.18;56.66;101725.79;107398;1246;69633;-65
2022/03/24 00:46:14;;;;;;;47.60;25.60;;;;;;;0.16;56.51;101723.94;107657;1244;72108;-64
2022/03/24 00:48:44;;;;;;;52.20;27.60;;;;;;;0.11;57.73;101717.30;107742;1244;60849;-62
2022/03/24 00:51:12;;;;;;;47.20;26.40;;;;;;;0.13;57.72;101716.44;107629;1244;61669;-64
2022/03/24 00:53:42;;;;;;;50.80;28.00;;;;;;;0.15;57.69;101711.77;107589;1244;75659;-66
2022/03/24 00:56:12;;;;;;;51.90;27.70;;;;;;;0.18;57.67;101714.14;107708;1244;70850;-67
2022/03/24 00:58:41;;;;;;;54.10;26.50;;;;;;;0.14;57.68;101707.68;107427;1244;70884;-67
2022/03/24 01:01:12;;;;;;;58.10;26.90;;;;;;;0.13;58.19;101707.36;107638;1244;73528;-66
2022/03/24 01:03:43;;;;;;;53.70;26.50;;;;;;;0.14;58.12;101702.89;107670;1243;59605;-65
2022/03/24 01:06:16;;;;;;;51.00;26.30;;;;;;;0.11;58.02;101699.15;107685;1246;59850;-66
2022/03/24 01:08:45;;;;;;;;;;;;;;;0.08;58.11;101694.06;107773;1244;70749;-64
2022/03/24 01:11:14;;;;;;;46.40;24.60;;;;;;;0.01;56.87;101696.20;107878;1243;71264;-64
2022/03/24 01:13:43;;;;;;;52.30;27.10;;;;;;;-0.04;58.37;101689.42;107945;1245;69089;-66
2022/03/24 01:16:13;;;;;;;55.10;27.90;;;;;;;-0.04;58.64;101689.92;107959;1245;72144;-69
2022/03/24 01:18:42;;;;;;;45.10;25.00;;;;;;;-0.04;58.81;101690.09;107667;1246;59473;-66
2022/03/24 01:21:16;;;;;;;51.50;27.60;;;;;;;-0.06;58.81;101685.85;107724;1245;61530;-67
2022/03/24 01:23:47;;;;;;;54.40;27.20;;;;;;;-0.05;59.04;101686.19;107659;1245;71864;-64
2022/03/24 01:26:18;;;;;;;48.70;25.00;;;;;;;-0.08;58.79;101681.91;107514;1246;70038;-65
2022/03/24 01:28:50;;;;;;;50.60;25.80;;;;;;;-0.07;58.95;101680.89;107695;1244;69992;-67
2022/03/24 01:31:20;;;;;;;49.80;25.20;;;;;;;-0.09;58.91;101678.35;107670;1246;72001;-66
2022/03/24 01:33:52;;;;;;;53.90;26.10;;;;;;;-0.15;58.87;101678.77;107805;1244;60100;-65
2022/03/24 01:36:21;;;;;;;47.00;26.00;;;;;;;-0.17;59.49;101675.70;108017;1246;60241;-68
2022/03/24 01:38:50;;;;;;;47.60;24.80;;;;;;;-0.19;59.41;101676.08;107630;1246;71713;-67
2022/03/24 01:41:21;;;;;;;49.90;25.10;;;;;;;-0.25;58.57;101670.67;107607;1244;72525;-64
2022/03/24 01:43:51;;;;;;;52.50;26.30;;;;;;;-0.29;59.82;101666.95;107751;1244;70652;-66
2022/03/24 01:46:22;;;;;;;46.30;24.10;;;;;;;-0.30;59.85;101669.70;107698;1244;74819;-64
2022/03/24 01:48:52;;;;;;;49.00;24.80;;;;;;;-0.32;59.46;101666.49;107693;1244;62616;-67
2022/03/24 01:51:23;;;;;;;53.10;25.30;;;;;;;-0.33;59.01;101661.88;107619;1246;59538;-65
2022/03/24 01:53:57;;;;;;;51.20;26.00;;;;;;;-0.34;59.85;101658.80;107445;1244;75535;-68
2022/03/24 01:56:28;;;;;;;44.30;25.20;;;;;;;-0.35;59.59;101660.86;107583;1245;71932;-66
2022/03/24 01:58:58;;;;;;;49.10;26.10;;;;;;;-0.36;59.98;101655.23;107580;1245;69794;-65
2022/03/24 02:01:34;;;;;;;50.40;25.20;;;;;;;-0.39;60.15;101652.19;107562;1243;73921;-65
2022/03/24 02:04:05;;;;;;;45.10;25.40;;;;;;;-0.43;59.89;101651.89;108787;1243;59783;-65
2022/03/24 02:06:34;;;;;;;45.90;24.40;;;;;;;-0.47;60.01;101649.02;109387;1241;61770;-65
2022/03/24 02:09:04;;;;;;;44.30;23.40;;;;;;;-0.49;60.37;101644.95;107567;1243;75095;-65
2022/03/24 02:11:34;;;;;;;44.60;23.50;;;;;;;-0.55;60.31;101642.27;107714;1244;73107;-64
2022/03/24 02:14:05;;;;;;;45.00;24.10;;;;;;;-0.60;59.50;101644.90;107681;1244;71392;-64
2022/03/24 02:16:48;;;;;;;42.40;22.70;;;;;;;-0.73;61.21;101647.10;107720;1244;72919;-65
2022/03/24 02:19:23;;;;;;;48.90;25.10;;;;;;;-0.81;60.19;101647.86;107592;1244;60615;-65
2022/03/24 02:22:01;;;;;;;40.30;23.20;;;;;;;-0.91;59.95;101647.11;107559;1243;60549;-66
2022/03/24 02:24:29;;;;;;;48.40;24.30;;;;;;;-0.98;59.08;101648.71;107697;1243;74412;-65
2022/03/24 02:26:59;;;;;;;40.10;22.80;;;;;;;-1.01;59.72;101646.36;107738;1243;71250;-64
2022/03/24 02:29:28;;;;;;;43.10;22.60;;;;;;;-1.00;59.68;101648.92;107614;1246;69718;-63
2022/03/24 02:31:58;;;;;;;40.20;22.60;;;;;;;-1.03;58.99;101641.60;107701;1244;71891;-65
2022/03/24 02:34:47;;;;;;;42.90;23.50;;;;;;;-1.08;59.48;101640.78;107816;1243;60532;-64
2022/03/24 02:37:24;;;;;;;46.00;23.20;;;;;;;-1.10;59.94;101638.92;107835;1243;59896;-64
2022/03/24 02:39:59;;;;;;;45.00;23.60;;;;;;;-1.13;62.51;101636.89;107898;1242;74308;-65
2022/03/24 02:42:30;;;;;;;40.60;23.00;;;;;;;-1.11;62.46;101636.20;107615;1243;70901;-65
2022/03/24 02:45:07;;;;;;;45.30;24.50;;;;;;;-1.08;62.57;101634.80;107823;1243;70924;-66
2022/03/24 02:47:36;;;;;;;40.50;23.60;;;;;;;-1.05;62.70;101634.08;107813;1244;74326;-65
2022/03/24 02:50:07;;;;;;;46.90;25.10;;;;;;;-1.09;62.98;101630.88;107758;1243;61461;-64
2022/03/24 02:52:36;;;;;;;45.70;26.30;;;;;;;-1.05;63.16;101636.83;107806;1243;61705;-64
2022/03/24 02:55:07;;;;;;;44.50;23.90;;;;;;;-1.02;62.92;101632.02;107848;1243;75007;-64
2022/03/24 02:57:36;;;;;;;43.30;25.10;;;;;;;-1.02;62.68;101634.40;107801;1243;71723;-65
2022/03/24 03:00:07;;;;;;;46.30;24.60;;;;;;;-1.05;62.72;101633.58;107706;1244;68706;-64
2022/03/24 03:02:37;;;;;;;46.50;22.60;;;;;;;-1.11;62.42;101639.77;107744;1244;72051;-65
2022/03/24 03:05:07;;;;;;;46.90;24.10;;;;;;;-1.16;62.26;101637.59;107606;1243;62555;-65
2022/03/24 03:07:36;;;;;;;49.10;24.80;;;;;;;-1.18;62.50;101629.09;107821;1241;60447;-65
2022/03/24 03:10:06;;;;;;;48.20;25.70;;;;;;;-1.17;62.64;101628.90;107817;1243;73349;-65
2022/03/24 03:12:36;;;;;;;47.10;24.20;;;;;;;-1.18;62.21;101624.81;107686;1243;71073;-67
2022/03/24 03:15:06;;;;;;;43.80;23.90;;;;;;;-1.21;61.61;101622.45;107607;1243;69213;-65
2022/03/24 03:17:36;;;;;;;48.20;23.40;;;;;;;-1.25;60.62;101617.35;107662;1243;71390;-66
2022/03/24 03:20:06;;;;;;;45.40;23.40;;;;;;;-1.29;62.02;101620.80;107634;1243;59604;-66
2022/03/24 03:22:35;;;;;;;40.00;22.90;;;;;;;-1.36;61.52;101622.05;107634;1243;60271;-65
2022/03/24 03:25:05;;;;;;;43.90;23.80;;;;;;;-1.42;59.66;101618.86;107608;1243;74569;-66
2022/03/24 03:27:33;;;;;;;45.70;23.70;;;;;;;-1.50;59.75;101617.40;107623;1244;73279;-66
2022/03/24 03:30:05;;;;;;;44.50;24.90;;;;;;;-1.57;59.62;101611.47;107564;1243;72158;-66
2022/03/24 03:32:33;;;;;;;42.30;23.90;;;;;;;-1.63;60.83;101611.86;107563;1243;73005;-66
2022/03/24 03:35:03;;;;;;;46.90;26.50;;;;;;;-1.66;61.26;101609.48;107504;1245;60964;-61
2022/03/24 03:37:32;;;;;;;45.80;24.00;;;;;;;-1.65;61.54;101613.06;107623;1243;61048;-65
2022/03/24 03:40:01;;;;;;;43.80;25.30;;;;;;;-1.62;61.94;101613.55;107631;1244;72936;-65
2022/03/24 03:42:30;;;;;;;46.80;24.80;;;;;;;-1.64;62.50;101614.09;107434;1243;70533;-64
2022/03/24 03:44:59;;;;;;;41.40;24.10;;;;;;;-1.67;61.26;101614.45;107636;1243;67638;-65
2022/03/24 03:47:28;;;;;;;44.00;24.90;;;;;;;-1.70;62.30;101617.03;107658;1243;71642;-64
2022/03/24 03:49:57;;;;;;;47.40;25.80;;;;;;;-1.71;62.54;101619.77;107588;1244;59965;-65
2022/03/24 03:52:32;;;;;;;44.80;24.80;;;;;;;-1.73;61.62;101618.77;107464;1244;62313;-66
2022/03/24 03:55:01;;;;;;;49.80;25.20;;;;;;;-1.76;61.85;101615.38;107526;1243;73977;-66
2022/03/24 03:57:30;;;;;;;58.10;24.90;;;;;;;-1.80;62.82;101618.30;107742;1243;71193;-65
2022/03/24 04:00:52;;;;;;;47.30;25.10;;;;;;;-1.84;61.20;101618.67;107728;1243;68134;-70
2022/03/24 04:02:51;;;;;;;43.40;25.50;;;;;;;-1.86;62.53;101619.37;107695;1243;71820;-64
2022/03/24 04:05:25;;;;;;;46.80;25.50;;;;;;;-1.83;62.96;101619.67;107668;1246;60456;-65
2022/03/24 04:07:55;;;;;;;50.10;27.70;;;;;;;-1.78;64.46;101614.19;107690;1244;59262;-65
2022/03/24 04:10:26;;;;;;;46.00;26.20;;;;;;;-1.72;64.93;101614.31;107663;1244;74879;-66
2022/03/24 04:12:55;;;;;;;55.20;26.90;;;;;;;-1.67;64.57;101610.17;107356;1244;73109;-66
2022/03/24 04:15:25;;;;;;;48.10;27.30;;;;;;;-1.64;64.48;101612.72;107608;1244;68377;-63
2022/03/24 04:17:54;;;;;;;57.80;31.20;;;;;;;-1.59;64.35;101617.98;107516;1244;74334;-67
2022/03/24 04:20:23;;;;;;;57.60;29.30;;;;;;;-1.58;64.01;101612.16;107484;1244;60405;-66
2022/03/24 04:22:53;;;;;;;56.20;29.50;;;;;;;-1.58;64.16;101611.81;107606;1244;63224;-65
2022/03/24 04:25:23;;;;;;;49.80;26.90;;;;;;;-1.57;64.58;101610.62;107764;1244;73923;-64
2022/03/24 04:27:52;;;;;;;55.30;28.30;;;;;;;-1.56;64.48;101604.96;107794;1244;71658;-66
2022/03/24 04:30:21;;;;;;;52.20;26.00;;;;;;;-1.51;64.22;101606.98;107529;1245;68489;-66
2022/03/24 04:32:50;;;;;;;46.90;25.80;;;;;;;-1.45;64.39;101605.73;107705;1244;71982;-66
2022/03/24 04:35:21;;;;;;;59.00;29.00;;;;;;;-1.42;63.89;101606.73;107630;1243;59855;-65
2022/03/24 04:37:50;;;;;;;63.90;29.50;;;;;;;-1.28;63.99;101598.41;107712;1244;59565;-66
2022/03/24 04:40:20;;;;;;;59.80;27.50;;;;;;;-1.23;63.13;101595.10;107759;1243;74204;-64
2022/03/24 04:42:52;;;;;;;59.40;29.20;;;;;;;-1.14;63.20;101600.15;107694;1244;71305;-65
2022/03/24 04:45:22;;;;;;;58.50;29.10;;;;;;;-1.07;62.79;101594.27;107760;1243;68706;-66
2022/03/24 04:47:51;;;;;;;58.10;27.50;;;;;;;-0.98;62.37;101589.22;107836;1243;70179;-65
2022/03/24 04:50:21;;;;;;;64.20;31.10;;;;;;;-0.95;62.70;101590.89;107874;1243;59523;-67
2022/03/24 04:52:50;;;;;;;55.50;29.90;;;;;;;-0.91;62.47;101587.42;107968;1243;61733;-70
2022/03/24 04:55:19;;;;;;;61.10;30.70;;;;;;;-0.85;62.46;101587.71;107763;1244;71565;-64
2022/03/24 04:57:49;;;;;;;63.80;32.00;;;;;;;-0.82;61.89;101585.79;107846;1244;71434;-65
2022/03/24 05:00:18;;;;;;;60.20;28.70;;;;;;;-0.78;62.09;101582.66;107777;1243;68720;-67
2022/03/24 05:02:47;;;;;;;54.10;27.80;;;;;;;-0.75;61.09;101579.55;107743;1244;70952;-65
2022/03/24 05:05:16;;;;;;;54.30;26.60;;;;;;;-0.74;60.20;101584.33;107757;1243;60601;-63
2022/03/24 05:07:45;;;;;;;50.80;27.10;;;;;;;-0.74;60.36;101585.18;107796;1243;62710;-65
2022/03/24 05:10:15;;;;;;;58.40;30.00;;;;;;;-0.70;60.52;101581.03;107756;1243;75344;-69
2022/03/24 05:12:43;;;;;;;58.50;29.50;;;;;;;-0.61;62.33;101582.80;107800;1243;71625;-69
2022/03/24 05:15:15;;;;;;;42.60;23.50;;;;;;;-0.51;61.95;101583.88;107730;1243;71720;-71
2022/03/24 05:17:44;;;;;;;49.40;24.50;;;;;;;-0.45;60.44;101576.95;107785;1243;73079;-69
2022/03/24 05:20:14;;;;;;;46.40;22.60;;;;;;;-0.43;60.13;101581.73;107501;1243;60754;-67
2022/03/24 05:22:43;;;;;;;56.50;26.40;;;;;;;-0.45;60.06;101580.91;107726;1243;62113;-68
2022/03/24 05:25:14;;;;;;;43.40;22.00;;;;;;;-0.41;59.58;101579.47;107668;1243;76133;-67
2022/03/24 05:27:43;;;;;;;53.20;23.30;;;;;;;-0.40;59.59;101579.63;107672;1243;71824;-67
2022/03/24 05:30:14;;;;;;;43.30;24.20;;;;;;;-0.42;59.73;101582.05;107715;1243;70853;-68
2022/03/24 05:32:44;;;;;;;46.50;24.20;;;;;;;-0.43;59.56;101583.77;107811;1243;73647;-68
2022/03/24 05:35:13;;;;;;;44.20;24.50;;;;;;;-0.44;59.44;101580.70;107712;1243;60168;-66
2022/03/24 05:37:42;;;;;;;52.00;29.00;;;;;;;-0.41;59.35;101581.35;107762;1246;59533;-65
2022/03/24 05:40:12;;;;;;;57.10;30.20;;;;;;;-0.38;59.38;101580.29;107709;1243;75431;-66
2022/03/24 05:42:41;;;;;;;50.80;24.40;;;;;;;-0.27;58.97;101578.59;107826;1244;71103;-67
2022/03/24 05:45:10;;;;;;;47.30;26.00;;;;;;;-0.13;58.58;101580.98;107704;1243;71356;-65
2022/03/24 05:47:39;;;;;;;54.80;27.80;;;;;;;-0.03;58.69;101576.55;107617;1244;72539;-67
2022/03/24 05:50:11;;;;;;;50.80;25.80;;;;;;;0.10;58.74;101577.20;107789;1243;60517;-69
2022/03/24 05:52:52;;;;;;;59.60;27.70;;;;;;;0.22;58.49;101578.56;107833;1243;60925;-69
2022/03/24 05:55:23;;;;;;;55.00;27.00;;;;;;;0.36;59.17;101575.77;107752;1243;74795;-68
2022/03/24 05:57:52;;;;;;;63.70;32.10;;;;;;;0.56;58.68;101570.29;107703;1244;70215;-69
2022/03/24 06:00:22;;;;;;;62.00;30.60;;;;;;;0.77;58.03;101569.23;107810;1243;67272;-69
2022/03/24 06:02:53;;;;;;;47.80;26.00;;;;;;;0.94;57.86;101568.06;107612;1244;71993;-68
2022/03/24 06:05:25;;;;;;;50.50;26.20;;;;;;;1.10;57.40;101565.87;107805;1243;59830;-67
2022/03/24 06:07:53;;;;;;;58.10;30.80;;;;;;;1.25;56.82;101562.84;107448;1245;60273;-65
2022/03/24 06:10:23;;;;;;;56.90;29.20;;;;;;;1.36;56.65;101565.34;107419;1244;73058;-66
2022/03/24 06:12:52;;;;;;;65.30;31.30;;;;;;;1.53;56.29;101563.11;107601;1243;72294;-67
2022/03/24 06:15:21;;;;;;;63.20;28.90;;;;;;;1.66;56.14;101558.36;107608;1243;70954;-67
2022/03/24 06:17:50;;;;;;;66.40;30.30;;;;;;;1.81;55.87;101558.88;107636;1243;73022;-69
2022/03/24 06:20:19;;;;;;;49.60;27.90;;;;;;;1.99;55.78;101557.09;107618;1243;59549;-66
2022/03/24 06:22:53;;;;;;;54.30;26.30;;;;;;;2.18;55.20;101548.75;107521;1243;61756;-68
2022/03/24 06:25:22;;;;;;;45.30;23.30;;;;;;;2.33;54.78;101540.12;107383;1246;73707;-68
2022/03/24 06:27:51;;;;;;;48.20;26.90;;;;;;;2.48;54.29;101544.05;107649;1243;72287;-67
2022/03/24 06:30:21;;;;;;;51.80;26.50;;;;;;;2.59;54.11;101545.30;107607;1243;71776;-67
2022/03/24 06:32:52;;;;;;;49.80;25.80;;;;;;;2.75;54.02;101542.81;107438;1243;73715;-69
2022/03/24 06:35:21;;;;;;;60.90;28.00;;;;;;;2.93;53.89;101538.37;107685;1244;59697;-66
2022/03/24 06:37:52;;;;;;;51.20;26.70;;;;;;;3.14;53.32;101547.95;107444;1244;61733;-69
2022/03/24 06:40:21;;;;;;;47.20;24.10;;;;;;;3.34;52.84;101542.20;107355;1243;712173;-68
2022/03/24 06:42:52;;;;;;;53.60;28.50;;;;;;;3.56;52.45;101535.04;107574;1245;72278;-68
2022/03/24 06:45:21;;;;;;;57.70;28.50;;;;;;;3.76;52.31;101531.49;107857;1241;69186;-69
2022/03/24 06:47:51;;;;;;;58.40;30.20;;;;;;;3.95;51.82;101531.58;107861;1243;72009;-68
2022/03/24 06:50:21;;;;;;;54.80;29.50;;;;;;;4.17;51.98;101529.50;107608;1246;59914;-68
2022/03/24 06:52:50;;;;;;;64.30;29.70;;;;;;;4.39;51.45;101529.96;107656;1244;60593;-67
2022/03/24 06:55:20;;;;;;;58.90;30.50;;;;;;;4.61;50.84;101525.75;107621;1243;73679;-70
2022/03/24 06:57:49;;;;;;;48.40;26.50;;;;;;;4.84;50.51;101525.33;107547;1243;72641;-69
2022/03/24 07:00:18;;;;;;;59.10;30.50;;;;;;;5.05;50.04;101521.09;107533;1243;70113;-67
2022/03/24 07:02:47;;;;;;;50.90;28.80;;;;;;;5.31;49.01;101519.10;107522;1244;74946;-68
2022/03/24 07:05:16;;;;;;;54.70;29.90;;;;;;;5.56;48.28;101513.48;109976;1242;60208;-69
2022/03/24 07:07:45;;;;;;;46.30;26.40;;;;;;;5.79;47.99;101508.07;109863;1244;61231;-71
2022/03/24 07:10:14;;;;;;;46.80;25.10;;;;;;;6.10;47.12;101509.45;108753;1243;75260;-70
2022/03/24 07:12:44;;;;;;;55.90;30.50;;;;;;;6.36;46.23;101508.20;107518;1244;71241;-70
2022/03/24 07:15:13;;;;;;;58.60;28.60;;;;;;;6.61;45.84;101509.75;107540;1243;71557;-68
2022/03/24 07:17:41;;;;;;;58.80;29.50;;;;;;;6.86;45.71;101504.81;107536;1243;72953;-68
2022/03/24 07:20:11;;;;;;;52.00;28.10;;;;;;;7.13;44.72;101503.11;107588;1243;60273;-69
2022/03/24 07:22:40;;;;;;;58.90;31.80;;;;;;;7.40;44.49;101504.63;107659;1243;60413;-68
2022/03/24 07:25:09;;;;;;;49.30;27.60;;;;;;;7.62;42.98;101501.36;107622;1243;73371;-68
2022/03/24 07:27:39;;;;;;;47.40;25.80;;;;;;;7.81;41.95;101500.42;107442;1243;71998;-70
2022/03/24 07:30:10;;;;;;;57.20;29.40;;;;;;;7.98;41.81;101500.31;107702;1243;71512;-69
2022/03/24 07:32:42;;;;;;;48.50;28.40;;;;;;;8.18;41.35;101499.66;107754;1243;72552;-69
2022/03/24 07:35:14;;;;;;;54.60;27.70;;;;;;;8.39;41.06;101500.18;107596;1243;59579;-70
2022/03/24 07:37:46;;;;;;;55.00;28.00;;;;;;;8.64;40.63;101496.69;107749;1243;61334;-70
2022/03/24 07:40:18;;;;;;;38.50;23.40;;;;;;;8.87;40.22;101490.61;107899;1243;73773;-70
2022/03/24 07:42:50;;;;;;;42.70;23.50;;;;;;;9.14;38.11;101487.79;107704;1243;70923;-70
2022/03/24 07:45:20;;;;;;;42.40;24.60;;;;;;;9.37;37.65;101487.04;107781;1243;70710;-69
2022/03/24 07:48:10;;;;;;;43.80;25.50;;;;;;;9.55;37.75;101488.48;107759;1243;74452;-72
2022/03/24 07:50:43;;;;;;;50.90;26.20;;;;;;;9.73;37.27;101483.66;107904;1244;60128;-69
2022/03/24 07:53:11;;;;;;;46.10;26.30;;;;;;;9.96;37.07;101478.15;107982;1243;61448;-69
2022/03/24 07:55:44;;;;;;;48.30;27.20;;;;;;;10.23;37.30;101471.20;107795;1243;75285;-71
2022/03/24 07:58:17;;;;;;;42.40;23.50;;;;;;;10.57;35.70;101467.09;107691;1243;71467;-69
2022/03/24 08:00:47;;;;;;;35.00;19.10;;;;;;;10.85;35.49;101463.84;107590;1243;70400;-70
2022/03/24 08:03:21;;;;;;;32.70;18.50;;;;;;;11.18;33.54;101460.36;107574;1245;72418;-70
2022/03/24 08:05:50;;;;;;;36.00;21.10;;;;;;;11.48;32.82;101456.88;107617;1243;59712;-70
2022/03/24 08:08:20;;;;;;;30.50;17.50;;;;;;;11.75;32.82;101452.17;107609;1243;60051;-70
2022/03/24 08:10:50;;;;;;;27.60;16.80;;;;;;;12.04;31.36;101448.35;107746;1243;74487;-67
2022/03/24 08:13:20;;;;;;;31.10;17.90;;;;;;;12.34;29.60;101450.53;107827;1243;69722;-66
2022/03/24 08:15:51;;;;;;;33.30;19.40;;;;;;;12.53;29.79;101440.84;107961;1243;70616;-71
2022/03/24 08:18:20;;;;;;;32.90;19.30;;;;;;;12.72;28.71;101430.98;107789;1243;73277;-71
2022/03/24 08:20:51;;;;;;;33.30;20.50;;;;;;;12.90;28.65;101431.98;107819;1243;59679;-70
2022/03/24 08:23:21;;;;;;;32.50;20.20;;;;;;;13.09;27.77;101432.05;107827;1243;59663;-69
2022/03/24 08:25:51;;;;;;;32.60;18.60;;;;;;;13.24;28.20;101431.12;107965;1243;74411;-70
2022/03/24 08:28:20;;;;;;;33.30;18.40;;;;;;;13.40;27.99;101431.22;107779;1244;70315;-70
2022/03/24 08:30:49;;;;;;;33.40;18.00;;;;;;;13.56;27.50;101427.06;107748;1245;68746;-69
2022/03/24 08:33:18;;;;;;;32.60;18.60;;;;;;;13.69;26.97;101424.36;107710;1244;72588;-71
2022/03/24 08:35:46;;;;;;;27.10;17.90;;;;;;;13.77;26.81;101417.98;107741;1244;59715;-71
2022/03/24 08:38:15;;;;;;;28.10;18.60;;;;;;;13.86;26.84;101423.95;107744;1244;59739;-71
2022/03/24 08:40:44;;;;;;;31.90;18.40;;;;;;;13.97;27.10;101412.08;107588;1246;71761;-69
2022/03/24 08:43:14;;;;;;;32.20;18.80;;;;;;;14.14;26.25;101418.54;107796;1243;72220;-71
2022/03/24 08:45:44;;;;;;;30.70;19.00;;;;;;;14.20;25.94;101406.52;107631;1243;69962;-70
2022/03/24 08:48:14;;;;;;;27.80;18.20;;;;;;;14.30;26.10;101404.86;107696;1243;71467;-70
2022/03/24 08:50:43;;;;;;;29.00;19.30;;;;;;;14.47;26.10;101400.77;107635;1244;59555;-72
2022/03/24 08:53:12;;;;;;;32.90;19.40;;;;;;;14.65;25.52;101401.50;107558;1244;59557;-68
2022/03/24 08:55:42;;;;;;;27.70;18.70;;;;;;;14.74;25.20;101400.77;107572;1243;71965;-69
2022/03/24 08:58:12;;;;;;;31.00;18.10;;;;;;;14.85;25.23;101399.73;107562;1243;72227;-68
2022/03/24 09:00:41;;;;;;;30.10;19.00;;;;;;;14.96;24.25;101388.98;107545;1244;69495;-69
2022/03/24 09:03:10;;;;;;;30.70;19.40;;;;;;;14.94;24.47;101385.61;107625;1243;71928;-70
2022/03/24 09:05:40;;;;;;;29.30;17.20;;;;;;;15.03;24.36;101382.98;107650;1243;60503;-69
2022/03/24 09:08:09;;;;;;;29.60;17.40;;;;;;;15.14;24.09;101380.55;107655;1243;62545;-69
2022/03/24 09:10:38;;;;;;;25.00;13.20;;;;;;;15.24;24.32;101372.73;107630;1243;75309;-71
2022/03/24 09:13:10;;;;;;;28.60;16.90;;;;;;;15.40;24.03;101371.08;107764;1245;72829;-71
2022/03/24 09:15:39;;;;;;;27.20;15.70;;;;;;;15.59;23.28;101361.54;107693;1244;70414;-72
2022/03/24 09:18:10;;;;;;;27.50;15.90;;;;;;;15.72;22.99;101361.59;107639;1243;74393;-70
2022/03/24 09:20:39;;;;;;;29.60;16.90;;;;;;;15.71;22.69;101367.10;107656;1243;60749;-70
2022/03/24 09:23:08;;;;;;;24.50;15.30;;;;;;;15.75;22.89;101362.21;107616;1244;60704;-70
2022/03/24 09:25:38;;;;;;;27.70;16.00;;;;;;;15.84;22.60;101358.23;107643;1243;74391;-69
2022/03/24 09:28:08;;;;;;;27.50;17.20;;;;;;;15.82;22.76;101351.61;107670;1246;70344;-70
2022/03/24 09:30:37;;;;;;;26.60;17.50;;;;;;;15.92;23.10;101353.00;107715;1243;69341;-69
2022/03/24 09:33:08;;;;;;;31.00;17.20;;;;;;;16.11;22.79;101345.45;107748;1243;71991;-69
2022/03/24 09:35:37;;;;;;;27.60;16.30;;;;;;;16.17;22.60;101356.52;107667;1243;61376;-70
2022/03/24 09:38:06;;;;;;;27.90;16.90;;;;;;;16.16;22.58;101349.41;107688;1243;62133;-71
2022/03/24 09:40:36;;;;;;;24.30;16.30;;;;;;;16.34;22.48;101345.37;107678;1243;75268;-71
2022/03/24 09:43:05;;;;;;;28.10;17.10;;;;;;;16.43;22.18;101338.90;107630;1243;71208;-70
2022/03/24 09:45:37;;;;;;;30.70;17.00;;;;;;;16.55;22.12;101333.00;107721;1244;69657;-70
2022/03/24 09:48:06;;;;;;;27.70;15.70;;;;;;;16.63;22.26;101339.00;107750;1243;72619;-70
2022/03/24 09:50:36;;;;;;;27.00;16.10;;;;;;;16.78;21.48;101339.81;107716;1243;59641;-71
2022/03/24 09:53:06;;;;;;;23.50;14.90;;;;;;;16.89;20.91;101338.62;107763;1243;60188;-70
2022/03/24 09:55:37;;;;;;;27.50;15.90;;;;;;;16.96;20.52;101344.17;107717;1243;73103;-71
2022/03/24 09:58:07;;;;;;;27.10;16.30;;;;;;;16.95;20.45;101339.89;107761;1243;72792;-72
2022/03/24 10:00:42;;;;;;;32.50;17.00;;;;;;;17.07;20.36;101339.31;107555;1243;71803;-72
2022/03/24 10:03:21;;;;;;;32.70;18.50;;;;;;;17.14;20.47;101338.16;107768;1243;72026;-69
2022/03/24 10:06:07;;;;;;;29.40;18.10;;;;;;;17.14;20.04;101350.60;107712;1243;62358;-71
2022/03/24 10:08:37;;;;;;;32.50;18.50;;;;;;;16.99;20.05;101345.67;107463;1243;59897;-71
2022/03/24 10:11:09;;;;;;;27.80;16.70;;;;;;;16.97;20.43;101337.40;107622;1243;75100;-70
2022/03/24 10:13:54;;;;;;;29.20;16.70;;;;;;;16.97;20.26;101344.45;107637;1243;72749;-71
2022/03/24 10:16:40;;;;;;;26.50;17.80;;;;;;;17.04;20.20;101339.21;107569;1243;70350;-71
2022/03/24 10:19:32;;;;;;;32.30;18.90;;;;;;;17.17;20.28;101351.25;107866;1243;71835;-70
2022/03/24 10:22:10;;;;;;;35.90;19.90;;;;;;;17.08;20.69;101338.72;107907;1243;60476;-70
2022/03/24 10:24:44;;;;;;;37.00;19.00;;;;;;;17.11;20.78;101343.87;107856;1243;61062;-70
2022/03/24 10:27:24;;;;;;;35.50;21.10;;;;;;;17.11;20.91;101344.08;107842;1243;75018;-71
2022/03/24 10:30:00;;;;;;;32.60;20.70;;;;;;;17.04;21.31;101354.17;107766;1243;70008;-71
2022/03/24 10:32:32;;;;;;;34.50;22.10;;;;;;;17.15;21.51;101341.89;107673;1245;69737;-73
2022/03/24 10:35:13;;;;;;;36.80;21.80;;;;;;;17.38;21.63;101352.53;107670;1244;71356;-72
2022/03/24 10:37:50;;;;;;;34.10;21.90;;;;;;;17.31;21.76;101349.27;107938;1245;59650;-72
2022/03/24 10:40:19;;;;;;;35.10;20.40;;;;;;;17.36;22.10;101345.86;107887;1243;60990;-71
2022/03/24 10:42:48;;;;;;;33.60;20.50;;;;;;;17.70;21.69;101355.75;107902;1243;72846;-70
2022/03/24 10:45:24;;;;;;;27.00;18.60;;;;;;;17.73;21.55;101350.77;107984;1243;70702;-70
2022/03/24 10:48:01;;;;;;;32.20;21.30;;;;;;;17.80;21.69;101346.43;107749;1243;70873;-71
2022/03/24 10:50:40;;;;;;;32.80;19.60;;;;;;;17.79;21.90;101341.88;107931;1246;72960;-71
2022/03/24 10:53:16;;;;;;;34.60;20.90;;;;;;;18.01;21.87;101336.36;108082;1243;59703;-71
2022/03/24 10:55:45;;;;;;;31.90;19.60;;;;;;;17.99;21.97;101337.73;108116;1243;59601;-71
2022/03/24 10:58:33;;;;;;;34.70;21.50;;;;;;;18.07;22.00;101330.27;107837;1243;72516;-70
2022/03/24 11:01:07;;;;;;;33.70;19.90;;;;;;;17.95;22.30;101335.48;107877;1243;69890;-70
2022/03/24 11:03:39;;;;;;;36.90;21.20;;;;;;;17.89;22.32;101322.48;107808;1243;70528;-70
2022/03/24 11:06:13;;;;;;;36.00;22.40;;;;;;;18.05;22.37;101326.60;107818;1243;74310;-71
2022/03/24 11:08:50;;;;;;;35.80;21.60;;;;;;;18.00;22.34;101323.26;107823;1246;59800;-71
2022/03/24 11:11:20;;;;;;;30.80;20.90;;;;;;;18.11;22.24;101319.69;107767;1244;59751;-70
2022/03/24 11:14:04;;;;;;;32.80;20.30;;;;;;;18.17;22.21;101311.59;107827;1243;72658;-72
2022/03/24 11:16:34;;;;;;;33.80;20.50;;;;;;;18.31;21.62;101320.77;107785;1243;72416;-71
2022/03/24 11:19:15;;;;;;;23.90;16.90;;;;;;;18.47;21.33;101323.50;107712;1244;70033;-71
2022/03/24 11:21:50;;;;;;;30.50;19.20;;;;;;;18.46;20.61;101312.25;107763;1243;73707;-70